Time;durP1;ratioP1;P1;durP2;ratioP2;P2;SDS_P1;SDS_P2;PMS_P1;PMS_P2;Temp;Humidity;BMP_temperature;BMP_pressure;BME280_temperature;BME280_humidity;BME280_pressure;Samples;Min_cycle;Max_cycle;Signal;HPM_P1;HPM_P2
2022/04/12 00:00:27;;;;;;;14.27;13.50;;;9.60;12.30;;;;;;5014399;28;20482;-75
2022/04/12 00:02:52;;;;;;;14.60;13.57;;;9.70;12.10;;;;;;5029084;28;20682;-75
2022/04/12 00:05:18;;;;;;;13.77;12.93;;;9.70;12.30;;;;;;5012823;28;20512;-75
2022/04/12 00:07:44;;;;;;;12.90;12.30;;;9.60;12.30;;;;;;5013743;28;20208;-74
2022/04/12 00:10:12;;;;;;;13.53;12.73;;;9.60;12.20;;;;;;5013976;28;20667;-75
2022/04/12 00:12:38;;;;;;;14.27;13.23;;;9.70;12.20;;;;;;5012670;28;20413;-75
2022/04/12 00:15:05;;;;;;;13.30;12.47;;;9.60;12.40;;;;;;5013898;28;20417;-74
2022/04/12 00:20:15;;;;;;;12.87;12.20;;;9.50;12.60;;;;;;5014265;28;20473;-75
2022/04/12 00:22:41;;;;;;;13.80;12.90;;;9.50;12.70;;;;;;5013677;28;20469;-75
2022/04/12 00:25:11;;;;;;;13.57;12.70;;;9.40;12.90;;;;;;5013675;28;20659;-75
2022/04/12 00:27:40;;;;;;;13.67;12.80;;;9.30;12.80;;;;;;5013267;28;20450;-75
2022/04/12 00:30:08;;;;;;;13.30;12.50;;;9.30;13.30;;;;;;5013623;28;20435;-75
2022/04/12 00:32:35;;;;;;;13.23;12.53;;;9.10;14.20;;;;;;5013640;28;20399;-75
2022/04/12 00:35:02;;;;;;;14.83;13.70;;;9.10;13.60;;;;;;5012561;28;20933;-75
2022/04/12 00:37:28;;;;;;;11.50;10.90;;;9.00;14.20;;;;;;5012997;28;20470;-74
2022/04/12 00:39:54;;;;;;;12.03;10.90;;;8.90;14.40;;;;;;5013641;28;20913;-75
2022/04/12 00:42:19;;;;;;;12.60;11.90;;;8.80;14.10;;;;;;5028569;28;20426;-74
2022/04/12 00:44:45;;;;;;;13.43;12.63;;;8.80;14.60;;;;;;5013141;28;20460;-75
2022/04/12 00:47:11;;;;;;;12.47;11.70;;;8.70;15.20;;;;;;5012937;28;20192;-75
2022/04/12 00:49:36;;;;;;;11.87;11.30;;;8.70;15.50;;;;;;5011943;28;20187;-75
2022/04/12 00:52:04;;;;;;;11.37;10.67;;;8.70;15.30;;;;;;5012022;28;20177;-75
2022/04/12 00:54:33;;;;;;;11.57;10.70;;;8.60;15.00;;;;;;5013457;28;20173;-75
2022/04/12 00:56:59;;;;;;;12.17;11.13;;;8.60;15.80;;;;;;5012856;28;20431;-73
2022/04/12 00:59:25;;;;;;;12.80;11.90;;;8.50;16.30;;;;;;5013274;28;20779;-74
2022/04/12 01:01:52;;;;;;;11.13;10.43;;;8.40;15.90;;;;;;5013223;28;20494;-74
2022/04/12 01:04:19;;;;;;;10.90;10.37;;;8.30;16.30;;;;;;5027442;28;20467;-74
2022/04/12 01:06:46;;;;;;;10.70;10.20;;;8.20;16.90;;;;;;5012703;28;20408;-73
2022/04/12 01:09:12;;;;;;;10.30;9.80;;;8.20;17.00;;;;;;5013030;28;20415;-74
2022/04/12 01:11:40;;;;;;;11.37;10.70;;;8.20;16.60;;;;;;5012839;28;20411;-75
2022/04/12 01:14:07;;;;;;;11.77;11.17;;;8.20;16.70;;;;;;5013138;28;20935;-75
2022/04/12 01:16:33;;;;;;;9.87;9.40;;;8.00;17.20;;;;;;5012595;28;20415;-75
2022/04/12 01:18:59;;;;;;;11.00;10.40;;;8.00;17.40;;;;;;5012719;28;20438;-75
2022/04/12 01:21:38;;;;;;;10.27;9.77;;;8.00;17.80;;;;;;5012570;28;20933;-76
2022/04/12 01:24:05;;;;;;;9.60;9.10;;;7.90;17.70;;;;;;5012405;28;20495;-75
2022/04/12 01:26:32;;;;;;;10.70;9.93;;;7.80;17.70;;;;;;5027166;28;20423;-75
2022/04/12 01:28:58;;;;;;;10.67;10.10;;;7.80;17.70;;;;;;5011736;28;20454;-75
2022/04/12 01:31:25;;;;;;;10.17;9.57;;;7.80;17.70;;;;;;5012618;28;20426;-75
2022/04/12 01:33:51;;;;;;;9.80;9.30;;;7.80;17.70;;;;;;5012625;28;20498;-75
2022/04/12 01:36:17;;;;;;;10.23;9.73;;;7.70;17.70;;;;;;5013195;28;20415;-75
2022/04/12 01:38:43;;;;;;;10.50;10.00;;;7.70;17.60;;;;;;5012203;28;20830;-73
2022/04/12 01:41:08;;;;;;;9.80;9.30;;;7.70;18.40;;;;;;5012563;28;20435;-75
2022/04/12 01:43:34;;;;;;;10.20;9.60;;;7.60;18.30;;;;;;5012319;28;20307;-75
2022/04/12 01:46:00;;;;;;;9.80;9.30;;;7.50;18.60;;;;;;5012645;28;20594;-75
2022/04/12 01:48:25;;;;;;;8.80;8.40;;;7.50;18.70;;;;;;5012264;28;20817;-74
2022/04/12 01:50:51;;;;;;;9.20;8.70;;;7.50;18.90;;;;;;5012635;28;20540;-73
2022/04/12 01:53:17;;;;;;;9.07;8.67;;;7.30;19.70;;;;;;5012703;28;20428;-76
2022/04/12 01:55:43;;;;;;;9.63;9.03;;;7.30;20.00;;;;;;5012770;28;20445;-76
2022/04/12 01:58:09;;;;;;;8.20;7.80;;;7.20;20.10;;;;;;5027476;28;20199;-75
2022/04/12 02:00:36;;;;;;;8.40;7.80;;;7.10;21.10;;;;;;5027853;28;20266;-75
2022/04/12 02:03:02;;;;;;;10.23;9.17;;;7.00;20.20;;;;;;5012515;28;20239;-73
2022/04/12 02:05:28;;;;;;;9.00;8.50;;;7.00;20.30;;;;;;5027506;28;20763;-75
2022/04/12 02:07:53;;;;;;;8.97;8.37;;;7.10;20.20;;;;;;5012030;28;20443;-74
2022/04/12 02:10:21;;;;;;;8.90;8.37;;;7.00;20.10;;;;;;5012452;28;20175;-75
2022/04/12 02:12:47;;;;;;;8.90;8.17;;;6.90;20.60;;;;;;5012509;28;20601;-75
2022/04/12 02:15:12;;;;;;;9.17;8.67;;;6.80;21.30;;;;;;5013774;28;20413;-75
2022/04/12 02:17:38;;;;;;;9.43;8.93;;;6.70;21.20;;;;;;5015903;28;20495;-75
2022/04/12 02:20:04;;;;;;;8.37;7.97;;;6.70;21.20;;;;;;5016044;28;20645;-74
2022/04/12 02:22:30;;;;;;;8.77;8.23;;;6.70;21.20;;;;;;5031557;28;20684;-74
2022/04/12 02:24:55;;;;;;;9.00;8.40;;;6.60;21.20;;;;;;5031245;28;20219;-75
2022/04/12 02:27:21;;;;;;;8.80;8.13;;;6.60;21.20;;;;;;5015520;28;20224;-75
2022/04/12 02:29:46;;;;;;;7.13;6.83;;;6.50;21.50;;;;;;5014649;28;20179;-74
2022/04/12 02:32:12;;;;;;;9.63;8.90;;;6.30;21.90;;;;;;5015774;28;20256;-74
2022/04/12 02:34:37;;;;;;;10.03;8.03;;;6.40;21.70;;;;;;5031105;28;20518;-75
2022/04/12 02:37:03;;;;;;;10.07;9.27;;;6.30;22.00;;;;;;5015805;28;20206;-75
2022/04/12 02:39:29;;;;;;;8.83;8.10;;;6.30;22.10;;;;;;5014440;28;20195;-75
2022/04/12 02:41:54;;;;;;;8.10;7.67;;;6.20;22.30;;;;;;5015606;28;20461;-74
2022/04/12 02:44:20;;;;;;;8.23;7.33;;;6.20;22.30;;;;;;5014440;28;20218;-76
2022/04/12 02:46:46;;;;;;;8.47;7.90;;;6.30;22.60;;;;;;5015231;28;20196;-75
2022/04/12 02:49:11;;;;;;;8.10;7.43;;;6.10;22.60;;;;;;5015969;28;20174;-75
2022/04/12 02:51:37;;;;;;;7.80;7.30;;;6.00;23.40;;;;;;5015727;28;20241;-74
2022/04/12 02:54:02;;;;;;;7.30;6.90;;;5.90;23.70;;;;;;5016725;28;20190;-75
2022/04/12 02:56:28;;;;;;;8.17;7.67;;;6.00;23.30;;;;;;5030110;28;20186;-75
2022/04/12 02:58:53;;;;;;;6.90;6.30;;;6.00;23.50;;;;;;5013932;28;20237;-74
2022/04/12 03:01:19;;;;;;;6.77;6.37;;;6.00;23.40;;;;;;5015042;28;20223;-74
2022/04/12 03:03:44;;;;;;;7.97;7.47;;;5.90;23.50;;;;;;5015136;28;20256;-75
2022/04/12 03:06:10;;;;;;;8.23;7.63;;;6.00;23.40;;;;;;5014978;28;20185;-74
2022/04/12 03:08:36;;;;;;;9.90;7.70;;;6.00;23.00;;;;;;5014669;28;20253;-75
2022/04/12 03:11:01;;;;;;;8.40;7.80;;;6.00;24.10;;;;;;5030116;28;20177;-75
2022/04/12 03:13:27;;;;;;;8.57;7.97;;;6.10;23.80;;;;;;5029887;28;20235;-74
2022/04/12 03:15:53;;;;;;;7.97;7.43;;;6.10;23.60;;;;;;5014675;28;20212;-75
2022/04/12 03:18:18;;;;;;;7.57;6.90;;;6.10;23.70;;;;;;5029974;28;20683;-74
2022/04/12 03:20:45;;;;;;;7.97;7.40;;;6.10;23.50;;;;;;5013393;28;20647;-74
2022/04/12 03:23:11;;;;;;;8.60;7.90;;;6.00;23.70;;;;;;5029974;28;20223;-75
2022/04/12 03:25:36;;;;;;;7.30;6.90;;;5.90;23.70;;;;;;5014837;28;20741;-73
2022/04/12 03:28:02;;;;;;;8.30;7.63;;;5.80;23.80;;;;;;5028814;28;20459;-74
2022/04/12 03:30:27;;;;;;;7.33;6.80;;;5.80;23.80;;;;;;5014748;28;20169;-74
2022/04/12 03:32:53;;;;;;;6.57;6.17;;;5.70;24.10;;;;;;5029755;28;20708;-75
2022/04/12 03:35:21;;;;;;;8.47;7.10;;;5.70;24.30;;;;;;5014374;28;20572;-74
2022/04/12 03:37:47;;;;;;;7.57;7.07;;;5.70;24.80;;;;;;5014087;28;20200;-74
2022/04/12 03:40:13;;;;;;;7.90;7.20;;;5.60;24.70;;;;;;5014309;28;20260;-74
2022/04/12 03:42:39;;;;;;;7.53;6.93;;;5.60;24.70;;;;;;5029771;28;20271;-74
2022/04/12 03:45:05;;;;;;;6.70;6.10;;;5.50;24.90;;;;;;5014316;28;20180;-75
2022/04/12 03:47:30;;;;;;;7.28;6.78;;;5.40;25.60;;;;;;5029394;28;20670;-74
2022/04/12 03:49:56;;;;;;;6.43;5.83;;;5.40;25.80;;;;;;5014113;28;20219;-75
2022/04/12 03:52:22;;;;;;;7.63;6.97;;;5.40;25.80;;;;;;5014045;28;20172;-75
2022/04/12 03:54:47;;;;;;;7.87;7.07;;;5.50;24.90;;;;;;5012618;28;20180;-74
2022/04/12 03:57:13;;;;;;;6.90;6.40;;;5.50;25.10;;;;;;5013311;28;20201;-73
2022/04/12 03:59:39;;;;;;;6.97;6.37;;;5.40;25.30;;;;;;5014284;28;20491;-75
2022/04/12 04:02:04;;;;;;;8.83;8.07;;;5.30;25.60;;;;;;5014222;28;20299;-74
2022/04/12 04:04:30;;;;;;;8.23;7.63;;;5.30;26.70;;;;;;5013992;28;20207;-74
2022/04/12 04:06:55;;;;;;;8.23;6.90;;;5.40;25.70;;;;;;5028832;28;20176;-74
2022/04/12 04:09:21;;;;;;;6.97;6.33;;;5.50;25.50;;;;;;5014265;28;20176;-74
2022/04/12 04:11:48;;;;;;;6.70;6.10;;;5.40;25.70;;;;;;5013889;28;20176;-75
2022/04/12 04:14:15;;;;;;;9.07;7.43;;;5.30;25.90;;;;;;5013856;28;20503;-73
2022/04/12 04:16:41;;;;;;;6.50;5.88;;;5.20;25.60;;;;;;5013360;28;20599;-74
2022/04/12 04:19:09;;;;;;;6.53;6.00;;;5.30;25.80;;;;;;5013810;28;20177;-74
2022/04/12 04:21:38;;;;;;;6.95;6.45;;;5.20;26.40;;;;;;5013657;28;20172;-74
2022/04/12 04:24:04;;;;;;;7.32;6.65;;;5.30;25.90;;;;;;5028623;28;20248;-73
2022/04/12 04:26:30;;;;;;;7.13;6.50;;;5.10;26.40;;;;;;5013183;28;20221;-72
2022/04/12 04:28:56;;;;;;;7.17;6.67;;;5.00;27.20;;;;;;5013479;28;20216;-74
2022/04/12 04:31:21;;;;;;;6.43;5.93;;;4.90;27.80;;;;;;5013498;28;20415;-75
2022/04/12 04:33:47;;;;;;;5.47;5.07;;;4.80;28.30;;;;;;5028536;28;20613;-74
2022/04/12 04:36:13;;;;;;;7.53;6.23;;;4.90;28.90;;;;;;5013393;28;20176;-74
2022/04/12 04:38:38;;;;;;;7.47;6.87;;;4.90;27.60;;;;;;5011996;28;20243;-74
2022/04/12 04:41:04;;;;;;;6.47;5.97;;;4.90;27.50;;;;;;5028429;28;20607;-74
2022/04/12 04:43:29;;;;;;;7.37;6.73;;;4.80;28.30;;;;;;5028178;28;20567;-75
2022/04/12 04:45:55;;;;;;;7.83;7.23;;;4.70;28.80;;;;;;5013230;28;20175;-73
2022/04/12 04:48:21;;;;;;;8.00;7.23;;;4.60;29.40;;;;;;5028109;28;20203;-74
2022/04/12 04:50:48;;;;;;;7.40;6.22;;;4.60;29.80;;;;;;5013271;28;20608;-74
2022/04/12 04:53:14;;;;;;;6.75;6.13;;;4.70;29.20;;;;;;5013547;28;20229;-74
2022/04/12 04:55:42;;;;;;;7.97;7.33;;;4.80;29.10;;;;;;5013152;28;20180;-74
2022/04/12 04:58:09;;;;;;;6.90;6.30;;;4.70;29.90;;;;;;5012760;28;20262;-73
2022/04/12 05:00:43;;;;;;;6.55;5.93;;;4.80;29.40;;;;;;5109750;27;20512;-73
2022/04/12 05:03:08;;;;;;;7.60;6.57;;;4.80;29.50;;;;;;5108688;28;20177;-74
2022/04/12 05:05:34;;;;;;;6.97;6.17;;;4.70;29.50;;;;;;5108675;28;20185;-75
2022/04/12 05:08:02;;;;;;;7.57;6.00;;;4.80;29.60;;;;;;5108477;28;20196;-72
2022/04/12 05:10:29;;;;;;;13.10;6.40;;;4.90;29.40;;;;;;5109870;28;20721;-75
2022/04/12 05:12:56;;;;;;;6.00;5.50;;;4.80;29.30;;;;;;5090822;22;20710;-70
2022/04/12 05:15:22;;;;;;;6.95;6.35;;;4.90;28.90;;;;;;5048937;28;20175;-70
2022/04/12 05:17:52;;;;;;;6.57;5.97;;;4.90;28.30;;;;;;5048546;28;20171;-70
2022/04/12 05:20:19;;;;;;;6.93;6.22;;;4.80;29.10;;;;;;5049296;28;20531;-70
2022/04/12 05:22:45;;;;;;;7.32;6.72;;;5.00;28.50;;;;;;5061238;28;20248;-70
2022/04/12 05:25:10;;;;;;;7.37;6.67;;;5.20;28.50;;;;;;5070769;28;20271;-70
2022/04/12 05:27:36;;;;;;;5.97;5.50;;;5.10;28.40;;;;;;5070427;28;20603;-70
2022/04/12 05:30:07;;;;;;;7.77;7.17;;;5.10;28.40;;;;;;5069595;28;20209;-70
2022/04/12 05:32:33;;;;;;;6.70;6.18;;;5.30;28.60;;;;;;5068541;28;20256;-69
2022/04/12 05:34:58;;;;;;;7.93;7.30;;;5.80;28.50;;;;;;5068312;28;20241;-70
2022/04/12 05:37:24;;;;;;;8.40;7.80;;;6.40;27.50;;;;;;5068152;28;20176;-70
2022/04/12 05:39:49;;;;;;;10.70;9.10;;;6.80;24.00;;;;;;5068324;28;20211;-70
2022/04/12 05:42:15;;;;;;;10.17;9.47;;;7.00;23.90;;;;;;5068193;28;20190;-70
2022/04/12 05:44:40;;;;;;;10.33;9.40;;;7.50;22.20;;;;;;5068272;28;20170;-70
2022/04/12 05:47:10;;;;;;;9.83;9.23;;;7.90;21.50;;;;;;5068049;28;20189;-70
2022/04/12 05:49:35;;;;;;;10.60;9.93;;;8.60;21.60;;;;;;5068234;28;20587;-70
2022/04/12 05:52:01;;;;;;;12.10;11.40;;;9.10;19.20;;;;;;5068106;28;20437;-70
2022/04/12 05:54:27;;;;;;;11.60;10.90;;;9.60;17.90;;;;;;5068080;28;20191;-70
2022/04/12 05:56:52;;;;;;;12.30;11.60;;;10.20;16.40;;;;;;5067764;28;20225;-70
2022/04/12 05:59:18;;;;;;;12.60;11.90;;;10.50;15.70;;;;;;5067578;28;20744;-70
2022/04/12 06:01:43;;;;;;;12.07;11.37;;;10.00;14.90;;;;;;5067952;28;20695;-70
2022/04/12 06:04:09;;;;;;;13.90;13.00;;;9.80;16.20;;;;;;5067795;28;20173;-70
2022/04/12 06:06:38;;;;;;;13.27;12.43;;;10.20;15.90;;;;;;5067608;28;20497;-70
2022/04/12 06:09:04;;;;;;;12.10;11.50;;;10.10;14.70;;;;;;5067682;28;20781;-71
2022/04/12 06:11:30;;;;;;;13.80;13.00;;;10.20;16.70;;;;;;5057659;28;20418;-71
2022/04/12 06:13:55;;;;;;;12.50;11.70;;;10.70;14.50;;;;;;5054268;28;20908;-71
2022/04/12 06:16:21;;;;;;;12.30;11.70;;;10.60;14.50;;;;;;5054659;28;20267;-69
2022/04/12 06:18:47;;;;;;;15.50;14.50;;;10.20;14.20;;;;;;5054303;28;20232;-70
2022/04/12 06:21:12;;;;;;;12.63;11.93;;;10.80;14.60;;;;;;5054392;28;20448;-70
2022/04/12 06:23:38;;;;;;;14.10;13.30;;;11.40;15.00;;;;;;5054162;28;20209;-70
2022/04/12 06:26:04;;;;;;;14.17;13.27;;;12.30;12.20;;;;;;5054212;28;20573;-70
2022/04/12 06:28:30;;;;;;;14.93;14.03;;;13.30;11.00;;;;;;5053426;28;20186;-70
2022/04/12 06:30:58;;;;;;;15.07;14.10;;;13.70;10.20;;;;;;5054187;28;20851;-70
2022/04/12 06:33:26;;;;;;;14.60;13.80;;;14.60;10.00;;;;;;5054262;28;20957;-70
2022/04/12 06:35:52;;;;;;;15.00;14.30;;;15.60;9.10;;;;;;5053925;28;20429;-70
2022/04/12 06:38:18;;;;;;;16.07;15.17;;;16.50;8.40;;;;;;5053776;28;20467;-70
2022/04/12 06:40:45;;;;;;;15.03;14.43;;;17.20;4.40;;;;;;5054065;28;20361;-70
2022/04/12 06:43:10;;;;;;;16.40;15.30;;;16.90;5.10;;;;;;5053977;28;20942;-70
2022/04/12 06:45:36;;;;;;;16.33;15.47;;;17.00;3.90;;;;;;5054065;28;20460;-70
2022/04/12 06:48:02;;;;;;;15.63;14.83;;;17.10;4.10;;;;;;5053740;28;20405;-70
2022/04/12 06:50:28;;;;;;;16.43;15.20;;;17.40;4.60;;;;;;5053882;28;20182;-70
2022/04/12 06:52:55;;;;;;;14.67;13.97;;;17.60;2.50;;;;;;5053675;28;20195;-70
2022/04/12 06:55:21;;;;;;;15.60;14.87;;;17.80;4.00;;;;;;5053658;28;20478;-70
2022/04/12 06:57:47;;;;;;;16.47;15.67;;;18.10;3.00;;;;;;5053428;28;20416;-71
2022/04/12 07:00:13;;;;;;;16.30;15.50;;;18.40;3.40;;;;;;5053674;28;20202;-70
2022/04/12 07:02:39;;;;;;;16.67;15.90;;;18.80;2.40;;;;;;5053633;28;20430;-70
2022/04/12 07:05:06;;;;;;;15.90;15.20;;;19.00;2.30;;;;;;5053585;28;20492;-70
2022/04/12 07:07:34;;;;;;;15.77;15.10;;;19.50;2.30;;;;;;5053357;28;20175;-70
2022/04/12 07:10:00;;;;;;;16.97;16.17;;;19.80;1.30;;;;;;5052180;28;20432;-70
2022/04/12 07:12:25;;;;;;;16.00;15.20;;;20.00;1.00;;;;;;5053277;28;20453;-70
2022/04/12 07:14:51;;;;;;;16.37;15.67;;;20.00;1.10;;;;;;5053328;28;20175;-70
2022/04/12 07:17:17;;;;;;;18.27;17.37;;;19.80;1.20;;;;;;5053357;28;20183;-70
2022/04/12 07:19:43;;;;;;;16.43;15.70;;;18.80;1.60;;;;;;5053337;28;21024;-70
2022/04/12 07:22:09;;;;;;;16.27;15.50;;;18.70;1.40;;;;;;5052019;28;20186;-70
2022/04/12 07:24:35;;;;;;;17.53;16.20;;;18.50;1.80;;;;;;5052844;28;20823;-70
2022/04/12 07:27:01;;;;;;;16.83;16.03;;;17.80;2.40;;;;;;5052691;28;20253;-71
2022/04/12 07:29:26;;;;;;;15.30;14.60;;;17.70;3.10;;;;;;5053038;28;20425;-70
2022/04/12 07:31:52;;;;;;;18.37;17.30;;;17.20;2.30;;;;;;5052990;28;20202;-71
2022/04/12 07:34:17;;;;;;;17.97;16.73;;;17.20;3.10;;;;;;5053133;28;20235;-70
2022/04/12 07:36:53;;;;;;;17.43;16.30;;;16.50;4.30;;;;;;5051413;28;20178;-70
2022/04/12 07:39:23;;;;;;;17.63;16.73;;;16.10;4.90;;;;;;5052777;28;20194;-71
2022/04/12 07:41:50;;;;;;;17.57;15.60;;;16.60;5.20;;;;;;5053100;28;20952;-71
2022/04/12 07:44:17;;;;;;;15.60;14.80;;;16.90;5.40;;;;;;5052936;28;21014;-71
2022/04/12 07:46:42;;;;;;;17.33;16.30;;;17.30;4.50;;;;;;5052625;28;20424;-71
2022/04/12 07:49:08;;;;;;;16.63;15.73;;;17.70;4.70;;;;;;5053376;28;20409;-71
2022/04/12 07:51:35;;;;;;;17.00;15.80;;;18.10;3.40;;;;;;5052764;28;20179;-69
2022/04/12 07:54:01;;;;;;;16.93;16.10;;;18.40;3.10;;;;;;5052538;28;20182;-71
2022/04/12 07:56:27;;;;;;;15.97;15.27;;;18.80;2.90;;;;;;5052554;28;20471;-71
2022/04/12 07:58:53;;;;;;;16.10;15.30;;;19.20;2.40;;;;;;5052656;28;20285;-71
2022/04/12 08:01:19;;;;;;;17.53;16.37;;;19.50;2.30;;;;;;5052507;28;20500;-71
2022/04/12 08:03:44;;;;;;;16.60;15.90;;;19.60;1.30;;;;;;5051073;28;20739;-71
2022/04/12 08:06:10;;;;;;;16.83;16.07;;;18.80;1.60;;;;;;5052392;28;20177;-71
2022/04/12 08:08:35;;;;;;;16.87;16.07;;;19.00;2.20;;;;;;5052226;28;20179;-71
2022/04/12 08:11:01;;;;;;;17.03;16.03;;;19.30;1.80;;;;;;5052379;28;20174;-71
2022/04/12 08:13:27;;;;;;;17.60;16.60;;;19.50;2.10;;;;;;5052108;28;20218;-71
2022/04/12 08:15:52;;;;;;;16.57;15.67;;;19.60;2.70;;;;;;5050868;28;20178;-71
2022/04/12 08:18:18;;;;;;;29.43;14.97;;;19.80;2.30;;;;;;5052041;28;20184;-71
2022/04/12 08:20:43;;;;;;;15.80;14.90;;;19.50;1.70;;;;;;5052099;28;20574;-71
2022/04/12 08:23:09;;;;;;;17.37;16.30;;;19.30;2.50;;;;;;5052136;28;20559;-73
2022/04/12 08:25:35;;;;;;;17.03;16.23;;;19.50;2.10;;;;;;5052227;28;20170;-71
2022/04/12 08:28:00;;;;;;;17.20;16.30;;;19.10;2.60;;;;;;5051782;28;20178;-70
2022/04/12 08:30:26;;;;;;;18.57;17.37;;;18.80;2.60;;;;;;5052014;28;20217;-71
2022/04/12 08:32:52;;;;;;;16.90;16.10;;;18.70;3.60;;;;;;5051967;28;20205;-70
2022/04/12 08:35:18;;;;;;;18.17;16.10;;;18.20;2.70;;;;;;5051635;28;20420;-71
2022/04/12 08:37:44;;;;;;;16.43;15.70;;;18.10;3.40;;;;;;5050420;28;20183;-71
2022/04/12 08:40:10;;;;;;;16.83;15.73;;;18.40;4.40;;;;;;5051707;28;20981;-71
2022/04/12 08:42:36;;;;;;;17.27;16.27;;;18.70;4.00;;;;;;5052049;28;20198;-70
2022/04/12 08:45:03;;;;;;;17.17;16.17;;;18.30;3.80;;;;;;5051975;28;20463;-71
2022/04/12 08:47:34;;;;;;;16.80;16.00;;;18.40;4.00;;;;;;5051665;28;20467;-70
2022/04/12 08:50:01;;;;;;;16.20;15.50;;;18.20;4.10;;;;;;5051780;28;20417;-70
2022/04/12 08:52:27;;;;;;;16.60;15.70;;;18.00;3.60;;;;;;5051813;28;20448;-71
2022/04/12 08:54:53;;;;;;;16.10;15.30;;;18.00;4.40;;;;;;5051817;28;20780;-71
2022/04/12 08:57:19;;;;;;;17.20;16.10;;;17.80;4.10;;;;;;5051698;28;20774;-71
2022/04/12 08:59:46;;;;;;;15.80;15.00;;;17.80;4.50;;;;;;5052315;28;20452;-71
2022/04/12 09:02:12;;;;;;;16.10;15.30;;;18.10;5.20;;;;;;5052186;28;20194;-71
2022/04/12 09:04:38;;;;;;;15.60;14.77;;;18.10;4.00;;;;;;5051423;28;20488;-71
2022/04/12 09:07:08;;;;;;;16.60;15.80;;;17.60;4.30;;;;;;5051220;28;20424;-71
2022/04/12 09:09:34;;;;;;;15.83;14.93;;;17.80;4.50;;;;;;5051610;28;20863;-71
2022/04/12 09:12:08;;;;;;;16.43;15.60;;;17.50;4.70;;;;;;5051217;28;20445;-71
2022/04/12 09:14:45;;;;;;;16.60;15.73;;;17.80;4.90;;;;;;5051662;28;20210;-71
2022/04/12 09:17:18;;;;;;;15.13;14.30;;;18.00;4.80;;;;;;5051277;28;20457;-70
2022/04/12 09:19:51;;;;;;;16.00;15.20;;;18.00;5.00;;;;;;5051448;28;20468;-71
2022/04/12 09:22:22;;;;;;;15.43;14.73;;;18.10;4.30;;;;;;5051687;28;20508;-71
2022/04/12 09:24:48;;;;;;;16.70;15.90;;;18.10;5.10;;;;;;5051561;28;20437;-71
2022/04/12 09:27:16;;;;;;;16.27;15.27;;;18.20;4.80;;;;;;5049997;28;20449;-71
2022/04/12 09:29:50;;;;;;;17.57;16.67;;;18.40;5.10;;;;;;5050095;28;20948;-71
2022/04/12 09:32:19;;;;;;;17.13;16.13;;;18.60;4.70;;;;;;5051419;28;20437;-71
2022/04/12 09:34:45;;;;;;;16.70;15.90;;;18.50;4.50;;;;;;5051795;28;21067;-71
2022/04/12 09:37:21;;;;;;;17.30;16.03;;;18.60;4.50;;;;;;5051176;28;20578;-70
2022/04/12 09:39:54;;;;;;;16.47;15.60;;;18.80;4.40;;;;;;5051573;28;20451;-70
2022/04/12 09:42:55;;;;;;;15.87;15.10;;;18.70;5.00;;;;;;5051349;28;20425;-70
2022/04/12 09:45:33;;;;;;;15.73;15.03;;;18.70;5.30;;;;;;5051666;28;20425;-70
2022/04/12 09:48:04;;;;;;;15.47;14.77;;;18.50;5.30;;;;;;5054804;28;20393;-70
2022/04/12 09:50:32;;;;;;;15.13;14.43;;;18.40;6.40;;;;;;5054901;28;20421;-70
2022/04/12 09:53:09;;;;;;;15.90;15.10;;;18.60;5.60;;;;;;5054715;28;20460;-70
2022/04/12 09:55:39;;;;;;;17.10;16.17;;;18.60;4.70;;;;;;5054794;28;20405;-70
2022/04/12 09:58:07;;;;;;;16.40;15.60;;;18.60;5.40;;;;;;5054587;28;20409;-70
2022/04/12 10:00:34;;;;;;;15.60;14.90;;;18.10;6.20;;;;;;5053486;28;20566;-70
2022/04/12 10:03:02;;;;;;;14.33;13.73;;;18.30;6.40;;;;;;5054485;28;20805;-70
2022/04/12 10:05:28;;;;;;;15.33;14.57;;;18.30;5.50;;;;;;5054675;28;20401;-70
2022/04/12 10:07:58;;;;;;;14.90;14.10;;;18.30;6.70;;;;;;5054513;28;20508;-70
2022/04/12 10:10:24;;;;;;;16.87;15.97;;;18.50;6.50;;;;;;5054843;28;20801;-70
2022/04/12 10:12:50;;;;;;;15.23;14.53;;;18.80;6.40;;;;;;5054358;28;20462;-70
2022/04/12 10:15:16;;;;;;;14.93;14.13;;;18.90;5.90;;;;;;5054396;28;20409;-70
2022/04/12 10:17:42;;;;;;;14.73;14.03;;;18.80;5.20;;;;;;5054063;28;20973;-70
2022/04/12 10:20:10;;;;;;;15.17;14.57;;;18.50;4.90;;;;;;5054333;28;20234;-70
2022/04/12 10:22:36;;;;;;;13.77;13.17;;;18.60;6.00;;;;;;5054206;28;20478;-70
2022/04/12 10:25:02;;;;;;;14.03;13.43;;;18.60;5.30;;;;;;5054367;28;20409;-72
2022/04/12 10:27:29;;;;;;;14.17;13.47;;;18.80;4.10;;;;;;5052712;28;20808;-71
2022/04/12 10:30:20;;;;;;;15.30;14.40;;;19.00;3.90;;;;;;5054176;28;20425;-71
2022/04/12 10:33:02;;;;;;;14.90;14.17;;;19.10;4.60;;;;;;5054011;28;20433;-72
2022/04/12 10:35:52;;;;;;;14.73;14.00;;;19.20;4.40;;;;;;5054183;28;20746;-72
2022/04/12 10:38:19;;;;;;;15.30;14.60;;;19.10;4.60;;;;;;5053692;28;20417;-72
2022/04/12 10:40:47;;;;;;;14.70;13.90;;;19.20;3.40;;;;;;5053825;28;20543;-71
2022/04/12 10:43:14;;;;;;;16.63;15.67;;;19.50;2.60;;;;;;5053705;28;20494;-70
2022/04/12 10:45:47;;;;;;;14.00;13.40;;;19.80;2.60;;;;;;5053954;28;20493;-70
2022/04/12 10:48:19;;;;;;;14.37;13.87;;;20.20;2.80;;;;;;5053603;28;20417;-70
2022/04/12 10:50:46;;;;;;;14.50;13.90;;;20.60;1.00;;;;;;5053775;28;20936;-70
2022/04/12 10:53:11;;;;;;;14.83;14.27;;;20.90;1.00;;;;;;5053592;28;20447;-70
2022/04/12 10:55:42;;;;;;;14.80;14.20;;;21.30;1.00;;;;;;5053669;28;20500;-70
2022/04/12 10:58:29;;;;;;;14.80;14.20;;;21.70;1.00;;;;;;5053295;28;20197;-70
2022/04/12 11:00:55;;;;;;;13.77;13.27;;;22.10;1.00;;;;;;5053723;28;20894;-70
2022/04/12 11:03:43;;;;;;;14.93;14.23;;;22.30;1.00;;;;;;5053440;28;20424;-71
2022/04/12 11:06:20;;;;;;;13.80;13.30;;;22.50;1.00;;;;;;5053559;28;20567;-71
2022/04/12 11:08:49;;;;;;;14.57;13.97;;;22.80;1.00;;;;;;5053418;28;20462;-71
2022/04/12 11:11:21;;;;;;;13.77;13.27;;;23.00;1.00;;;;;;5053516;28;20417;-71
2022/04/12 11:13:49;;;;;;;14.73;14.13;;;23.20;1.00;;;;;;5052377;28;20464;-71
2022/04/12 11:16:17;;;;;;;15.07;14.30;;;23.20;1.00;;;;;;5052055;28;20433;-70
2022/04/12 11:18:57;;;;;;;14.10;13.50;;;23.10;1.00;;;;;;5053172;28;20779;-71
2022/04/12 11:21:24;;;;;;;13.33;12.83;;;23.40;1.00;;;;;;5051975;28;20470;-72
2022/04/12 11:23:51;;;;;;;14.40;13.80;;;23.60;1.00;;;;;;5053352;28;20946;-71
2022/04/12 11:26:38;;;;;;;14.37;13.77;;;23.80;1.00;;;;;;5051795;28;20447;-71
2022/04/12 11:29:11;;;;;;;14.33;13.83;;;24.00;1.00;;;;;;5053180;28;20409;-71
2022/04/12 11:31:41;;;;;;;14.17;13.60;;;24.10;1.00;;;;;;5053016;28;20401;-71
2022/04/12 11:34:07;;;;;;;14.60;13.77;;;24.20;1.00;;;;;;5053065;28;20413;-71
2022/04/12 11:36:34;;;;;;;13.80;13.30;;;24.30;1.00;;;;;;5052795;28;20428;-71
2022/04/12 11:38:59;;;;;;;15.03;14.43;;;24.40;1.00;;;;;;5053257;28;21089;-71
2022/04/12 11:41:27;;;;;;;14.20;13.70;;;24.60;1.00;;;;;;5052996;28;20411;-71
2022/04/12 11:44:00;;;;;;;14.60;13.90;;;24.70;1.00;;;;;;5053058;28;20240;-71
2022/04/12 11:46:34;;;;;;;14.13;13.63;;;24.80;1.00;;;;;;5052562;28;20910;-71
2022/04/12 11:49:08;;;;;;;14.30;13.70;;;25.00;1.00;;;;;;5052783;28;20453;-71
2022/04/12 11:51:42;;;;;;;14.00;13.50;;;25.20;1.00;;;;;;5053240;28;20932;-70
2022/04/12 11:54:25;;;;;;;14.27;13.67;;;25.30;1.00;;;;;;5052941;28;20411;-71
2022/04/12 11:57:15;;;;;;;13.87;13.27;;;25.40;1.00;;;;;;5052436;28;20432;-70
2022/04/12 11:59:44;;;;;;;13.90;13.40;;;25.60;1.00;;;;;;5052417;28;20420;-70
2022/04/12 12:02:10;;;;;;;14.13;13.40;;;25.70;1.00;;;;;;5052459;28;20433;-71
2022/04/12 12:04:36;;;;;;;15.00;14.20;;;25.70;1.00;;;;;;5052520;28;20500;-70
2022/04/12 12:07:05;;;;;;;14.90;13.77;;;25.70;1.00;;;;;;5052164;28;20178;-71
2022/04/12 12:09:33;;;;;;;13.80;13.30;;;25.80;1.00;;;;;;5051990;28;20484;-70
2022/04/12 12:12:08;;;;;;;13.97;13.47;;;25.90;1.00;;;;;;5052264;28;20441;-72
2022/04/12 12:14:35;;;;;;;14.20;13.70;;;25.90;1.00;;;;;;5052313;28;20788;-70
2022/04/12 12:17:04;;;;;;;15.23;14.10;;;26.00;1.00;;;;;;5052123;28;20413;-71
2022/04/12 12:19:33;;;;;;;13.87;13.33;;;26.20;1.00;;;;;;5052478;28;20449;-71
2022/04/12 12:22:02;;;;;;;13.87;13.37;;;26.30;1.00;;;;;;5052310;28;20460;-71
2022/04/12 12:24:28;;;;;;;14.20;13.70;;;26.50;1.00;;;;;;5052338;28;20443;-70
2022/04/12 12:26:55;;;;;;;13.93;13.43;;;26.70;1.00;;;;;;5051964;28;20417;-70
2022/04/12 12:29:22;;;;;;;15.20;14.47;;;26.70;1.00;;;;;;5052205;28;20460;-70
2022/04/12 12:31:48;;;;;;;15.17;14.57;;;26.70;1.00;;;;;;5052262;28;20527;-70
2022/04/12 12:34:34;;;;;;;14.83;14.30;;;26.70;1.00;;;;;;5052030;28;20496;-70
2022/04/12 12:37:07;;;;;;;14.70;14.20;;;26.80;1.00;;;;;;5051717;28;20249;-70
2022/04/12 12:39:38;;;;;;;15.43;14.83;;;26.80;1.00;;;;;;5051942;28;20417;-71
2022/04/12 12:42:04;;;;;;;14.50;14.00;;;26.80;1.00;;;;;;5052049;28;20444;-71
2022/04/12 12:44:34;;;;;;;14.40;13.90;;;26.50;1.00;;;;;;5051265;28;20409;-71
2022/04/12 12:47:02;;;;;;;14.77;14.17;;;26.60;1.00;;;;;;5051637;28;20417;-71